KMLC

Mc Alester Regional Airport

Mc Alester, Oklahoma, USA
METAR KMLC 201516Z AUTO 18012G19KT 10SM VCTS FEW018 BKN050 OVC090 19/17 A2990 RMK AO2 LTG DSNT SW T01940167
Observed Flight Rules
Feb-20 @ 15:16 UTC (5 hours ago) Visual Flight Rules
Wind Visibility Clouds Conditions
180° at 12 knots
 Gusting to 19 knots
10 miles
  • Few at 1,800' AGL
  • Broken at 5,000' AGL
  • Overcast at 9,000' AGL
  • Area Thunderstorm
Temperatures Readings
Current 19°C / 66°F
Dewpoint 17°C / 63°F
Humidity 88%
Altimeter 29.9" Hg
Pressure 1013 hPa
Elevation 232
METAR KMLC 201516Z AUTO 18012G19KT 10SM VCTS FEW018 BKN050 OVC090 19/17 A2990 RMK AO2 LTG DSNT SW T01940167
Observed Flight Rules
Feb-20 @ 15:16 UTC
(5 hours ago)
VFR
Wind Visibility
180° at 12 knots
 Gusting to 19 knots
10 miles
Clouds
  • Few at 1,800' AGL
  • Broken at 5,000' AGL
  • Overcast at 9,000' AGL
Conditions
  • Area Thunderstorm
Temperature Dewpoint
19°C / 66°F 17°C / 63°F
Humidity Altimeter Pressure
88% 29.9" Hg 1013 hPa